sensor_id;sensor_type;location;lat;lon;timestamp;P1;durP1;ratioP1;P2;durP2;ratioP2
51907;SDS011;39320;53.214;6.556;2022-11-20T00:01:19;4.95;;;4.55;;
51907;SDS011;39320;53.214;6.556;2022-11-20T00:03:47;5.55;;;5.15;;
51907;SDS011;39320;53.214;6.556;2022-11-20T00:06:14;4.68;;;4.30;;
51907;SDS011;39320;53.214;6.556;2022-11-20T00:08:41;5.53;;;5.03;;
51907;SDS011;39320;53.214;6.556;2022-11-20T00:11:14;5.20;;;4.80;;
51907;SDS011;39320;53.214;6.556;2022-11-20T00:13:39;5.05;;;4.68;;
51907;SDS011;39320;53.214;6.556;2022-11-20T00:16:06;4.22;;;3.92;;
51907;SDS011;39320;53.214;6.556;2022-11-20T00:18:35;4.32;;;3.92;;
51907;SDS011;39320;53.214;6.556;2022-11-20T00:21:05;5.05;;;4.65;;
51907;SDS011;39320;53.214;6.556;2022-11-20T00:23:32;5.18;;;4.78;;
51907;SDS011;39320;53.214;6.556;2022-11-20T00:26:06;5.22;;;4.82;;
51907;SDS011;39320;53.214;6.556;2022-11-20T00:28:33;4.18;;;3.88;;
51907;SDS011;39320;53.214;6.556;2022-11-20T00:31:00;4.18;;;3.88;;
51907;SDS011;39320;53.214;6.556;2022-11-20T00:33:30;4.07;;;3.78;;
51907;SDS011;39320;53.214;6.556;2022-11-20T00:36:03;4.05;;;3.75;;
51907;SDS011;39320;53.214;6.556;2022-11-20T00:38:32;4.03;;;3.72;;
51907;SDS011;39320;53.214;6.556;2022-11-20T00:41:03;4.53;;;4.22;;
51907;SDS011;39320;53.214;6.556;2022-11-20T00:43:31;4.55;;;4.25;;
51907;SDS011;39320;53.214;6.556;2022-11-20T00:45:58;4.38;;;3.97;;
51907;SDS011;39320;53.214;6.556;2022-11-20T00:48:24;4.40;;;4.10;;
51907;SDS011;39320;53.214;6.556;2022-11-20T00:50:50;4.75;;;4.43;;
51907;SDS011;39320;53.214;6.556;2022-11-20T00:53:17;4.38;;;4.07;;
51907;SDS011;39320;53.214;6.556;2022-11-20T00:55:51;4.38;;;4.07;;
51907;SDS011;39320;53.214;6.556;2022-11-20T00:58:18;4.43;;;4.10;;
51907;SDS011;39320;53.214;6.556;2022-11-20T01:00:44;4.28;;;3.95;;
51907;SDS011;39320;53.214;6.556;2022-11-20T01:03:09;3.97;;;3.67;;
51907;SDS011;39320;53.214;6.556;2022-11-20T01:05:35;3.83;;;3.53;;
51907;SDS011;39320;53.214;6.556;2022-11-20T01:08:01;4.35;;;4.05;;
51907;SDS011;39320;53.214;6.556;2022-11-20T01:10:27;4.63;;;4.32;;
51907;SDS011;39320;53.214;6.556;2022-11-20T01:12:52;4.65;;;4.25;;
51907;SDS011;39320;53.214;6.556;2022-11-20T01:15:38;4.28;;;3.97;;
51907;SDS011;39320;53.214;6.556;2022-11-20T01:18:04;4.53;;;4.22;;
51907;SDS011;39320;53.214;6.556;2022-11-20T01:20:34;4.40;;;4.10;;
51907;SDS011;39320;53.214;6.556;2022-11-20T01:23:00;3.95;;;3.65;;
51907;SDS011;39320;53.214;6.556;2022-11-20T01:25:27;4.95;;;4.60;;
51907;SDS011;39320;53.214;6.556;2022-11-20T01:27:53;5.07;;;4.65;;
51907;SDS011;39320;53.214;6.556;2022-11-20T01:30:18;4.20;;;3.90;;
51907;SDS011;39320;53.214;6.556;2022-11-20T01:32:44;4.28;;;3.97;;
51907;SDS011;39320;53.214;6.556;2022-11-20T01:35:10;4.88;;;4.47;;
51907;SDS011;39320;53.214;6.556;2022-11-20T01:37:36;4.40;;;4.10;;
51907;SDS011;39320;53.214;6.556;2022-11-20T01:40:02;4.95;;;4.55;;
51907;SDS011;39320;53.214;6.556;2022-11-20T01:42:28;4.40;;;4.10;;
51907;SDS011;39320;53.214;6.556;2022-11-20T01:48:13;4.85;;;4.45;;
51907;SDS011;39320;53.214;6.556;2022-11-20T01:50:40;4.47;;;4.18;;
51907;SDS011;39320;53.214;6.556;2022-11-20T01:53:08;4.20;;;3.90;;
51907;SDS011;39320;53.214;6.556;2022-11-20T01:55:48;4.43;;;4.13;;
51907;SDS011;39320;53.214;6.556;2022-11-20T01:58:17;4.70;;;4.32;;
51907;SDS011;39320;53.214;6.556;2022-11-20T02:00:45;4.70;;;4.30;;
51907;SDS011;39320;53.214;6.556;2022-11-20T02:03:12;4.88;;;4.50;;
51907;SDS011;39320;53.214;6.556;2022-11-20T02:05:43;4.72;;;4.43;;
51907;SDS011;39320;53.214;6.556;2022-11-20T02:08:23;5.13;;;4.72;;
51907;SDS011;39320;53.214;6.556;2022-11-20T02:10:49;4.68;;;4.35;;
51907;SDS011;39320;53.214;6.556;2022-11-20T02:13:14;5.05;;;4.65;;
51907;SDS011;39320;53.214;6.556;2022-11-20T02:16:00;4.43;;;4.13;;
51907;SDS011;39320;53.214;6.556;2022-11-20T02:18:26;4.80;;;4.40;;
51907;SDS011;39320;53.214;6.556;2022-11-20T02:20:54;4.57;;;4.18;;
51907;SDS011;39320;53.214;6.556;2022-11-20T02:26:02;5.00;;;4.70;;
51907;SDS011;39320;53.214;6.556;2022-11-20T02:28:30;4.63;;;4.30;;
51907;SDS011;39320;53.214;6.556;2022-11-20T02:30:56;4.88;;;4.47;;
51907;SDS011;39320;53.214;6.556;2022-11-20T02:33:22;4.97;;;4.68;;
51907;SDS011;39320;53.214;6.556;2022-11-20T02:35:48;4.85;;;4.45;;
51907;SDS011;39320;53.214;6.556;2022-11-20T02:38:14;5.20;;;4.80;;
51907;SDS011;39320;53.214;6.556;2022-11-20T02:40:40;5.32;;;5.00;;
51907;SDS011;39320;53.214;6.556;2022-11-20T02:43:07;5.45;;;4.95;;
51907;SDS011;39320;53.214;6.556;2022-11-20T02:45:33;5.45;;;5.05;;
51907;SDS011;39320;53.214;6.556;2022-11-20T02:47:59;4.75;;;4.45;;
51907;SDS011;39320;53.214;6.556;2022-11-20T02:50:25;4.70;;;4.40;;
51907;SDS011;39320;53.214;6.556;2022-11-20T02:52:51;4.75;;;4.35;;
51907;SDS011;39320;53.214;6.556;2022-11-20T02:55:16;5.07;;;4.68;;
51907;SDS011;39320;53.214;6.556;2022-11-20T02:57:42;5.18;;;4.88;;
51907;SDS011;39320;53.214;6.556;2022-11-20T03:00:08;4.55;;;4.15;;
51907;SDS011;39320;53.214;6.556;2022-11-20T03:02:37;4.63;;;4.30;;
51907;SDS011;39320;53.214;6.556;2022-11-20T03:05:03;4.88;;;4.47;;
51907;SDS011;39320;53.214;6.556;2022-11-20T03:07:29;5.05;;;4.65;;
51907;SDS011;39320;53.214;6.556;2022-11-20T03:09:55;5.25;;;4.85;;
51907;SDS011;39320;53.214;6.556;2022-11-20T03:12:21;4.53;;;4.22;;
51907;SDS011;39320;53.214;6.556;2022-11-20T03:14:46;4.72;;;4.43;;
51907;SDS011;39320;53.214;6.556;2022-11-20T03:17:12;4.70;;;4.30;;
51907;SDS011;39320;53.214;6.556;2022-11-20T03:19:38;4.50;;;4.20;;
51907;SDS011;39320;53.214;6.556;2022-11-20T03:22:03;4.55;;;4.15;;
51907;SDS011;39320;53.214;6.556;2022-11-20T03:24:29;4.10;;;3.80;;
51907;SDS011;39320;53.214;6.556;2022-11-20T03:26:55;4.88;;;4.47;;
51907;SDS011;39320;53.214;6.556;2022-11-20T03:29:20;4.43;;;4.13;;
51907;SDS011;39320;53.214;6.556;2022-11-20T03:31:46;4.05;;;3.75;;
51907;SDS011;39320;53.214;6.556;2022-11-20T03:34:15;4.30;;;4.00;;
51907;SDS011;39320;53.214;6.556;2022-11-20T03:36:42;4.63;;;4.20;;
51907;SDS011;39320;53.214;6.556;2022-11-20T03:39:08;4.60;;;4.30;;
51907;SDS011;39320;53.214;6.556;2022-11-20T03:41:38;4.93;;;4.63;;
51907;SDS011;39320;53.214;6.556;2022-11-20T03:44:06;4.53;;;4.22;;
51907;SDS011;39320;53.214;6.556;2022-11-20T03:46:34;4.93;;;4.53;;
51907;SDS011;39320;53.214;6.556;2022-11-20T03:49:00;5.13;;;4.72;;
51907;SDS011;39320;53.214;6.556;2022-11-20T03:51:27;4.80;;;4.50;;
51907;SDS011;39320;53.214;6.556;2022-11-20T03:53:58;4.40;;;4.10;;
51907;SDS011;39320;53.214;6.556;2022-11-20T03:56:28;4.50;;;4.20;;
51907;SDS011;39320;53.214;6.556;2022-11-20T03:58:55;4.68;;;4.35;;
51907;SDS011;39320;53.214;6.556;2022-11-20T04:01:22;5.10;;;4.72;;
51907;SDS011;39320;53.214;6.556;2022-11-20T04:03:53;4.78;;;4.38;;
51907;SDS011;39320;53.214;6.556;2022-11-20T04:06:21;4.25;;;3.95;;
51907;SDS011;39320;53.214;6.556;2022-11-20T04:08:48;4.22;;;3.92;;
51907;SDS011;39320;53.214;6.556;2022-11-20T04:11:16;4.60;;;4.30;;
51907;SDS011;39320;53.214;6.556;2022-11-20T04:13:47;4.22;;;3.88;;
51907;SDS011;39320;53.214;6.556;2022-11-20T04:16:15;4.57;;;4.28;;
51907;SDS011;39320;53.214;6.556;2022-11-20T04:18:41;4.90;;;4.50;;
51907;SDS011;39320;53.214;6.556;2022-11-20T04:21:08;4.45;;;4.15;;
51907;SDS011;39320;53.214;6.556;2022-11-20T04:23:34;4.38;;;4.07;;
51907;SDS011;39320;53.214;6.556;2022-11-20T04:26:03;4.10;;;3.80;;
51907;SDS011;39320;53.214;6.556;2022-11-20T04:28:35;4.40;;;4.05;;
51907;SDS011;39320;53.214;6.556;2022-11-20T04:31:05;4.00;;;3.70;;
51907;SDS011;39320;53.214;6.556;2022-11-20T04:33:36;4.93;;;4.60;;
51907;SDS011;39320;53.214;6.556;2022-11-20T04:36:03;3.70;;;3.40;;
51907;SDS011;39320;53.214;6.556;2022-11-20T04:38:38;4.40;;;4.10;;
51907;SDS011;39320;53.214;6.556;2022-11-20T04:41:07;4.40;;;4.07;;
51907;SDS011;39320;53.214;6.556;2022-11-20T04:43:36;4.07;;;3.78;;
51907;SDS011;39320;53.214;6.556;2022-11-20T04:46:01;4.07;;;3.65;;
51907;SDS011;39320;53.214;6.556;2022-11-20T04:48:28;4.00;;;3.70;;
51907;SDS011;39320;53.214;6.556;2022-11-20T04:50:54;4.38;;;4.07;;
51907;SDS011;39320;53.214;6.556;2022-11-20T04:53:21;4.18;;;3.88;;
51907;SDS011;39320;53.214;6.556;2022-11-20T04:55:47;3.92;;;3.63;;
51907;SDS011;39320;53.214;6.556;2022-11-20T04:58:13;4.22;;;3.92;;
51907;SDS011;39320;53.214;6.556;2022-11-20T05:00:39;3.90;;;3.60;;
51907;SDS011;39320;53.214;6.556;2022-11-20T05:03:05;3.90;;;3.60;;
51907;SDS011;39320;53.214;6.556;2022-11-20T05:05:33;3.47;;;3.28;;
51907;SDS011;39320;53.214;6.556;2022-11-20T05:07:59;4.20;;;3.90;;
51907;SDS011;39320;53.214;6.556;2022-11-20T05:10:26;4.40;;;4.07;;
51907;SDS011;39320;53.214;6.556;2022-11-20T05:12:52;4.20;;;3.90;;
51907;SDS011;39320;53.214;6.556;2022-11-20T05:15:18;3.92;;;3.70;;
51907;SDS011;39320;53.214;6.556;2022-11-20T05:17:48;3.70;;;3.40;;
51907;SDS011;39320;53.214;6.556;2022-11-20T05:20:14;3.38;;;3.17;;
51907;SDS011;39320;53.214;6.556;2022-11-20T05:22:40;3.95;;;3.65;;
51907;SDS011;39320;53.214;6.556;2022-11-20T05:25:06;3.95;;;3.67;;
51907;SDS011;39320;53.214;6.556;2022-11-20T05:27:32;3.70;;;3.40;;
51907;SDS011;39320;53.214;6.556;2022-11-20T05:29:57;4.15;;;3.85;;
51907;SDS011;39320;53.214;6.556;2022-11-20T05:32:23;4.00;;;3.70;;
51907;SDS011;39320;53.214;6.556;2022-11-20T05:34:50;3.90;;;3.60;;
51907;SDS011;39320;53.214;6.556;2022-11-20T05:37:17;4.15;;;3.85;;
51907;SDS011;39320;53.214;6.556;2022-11-20T05:39:42;3.88;;;3.58;;
51907;SDS011;39320;53.214;6.556;2022-11-20T05:42:08;3.97;;;3.67;;
51907;SDS011;39320;53.214;6.556;2022-11-20T05:44:53;3.88;;;3.58;;
51907;SDS011;39320;53.214;6.556;2022-11-20T05:47:18;3.60;;;3.40;;
51907;SDS011;39320;53.214;6.556;2022-11-20T05:49:44;4.05;;;3.75;;
51907;SDS011;39320;53.214;6.556;2022-11-20T05:52:10;4.03;;;3.72;;
51907;SDS011;39320;53.214;6.556;2022-11-20T05:54:36;3.40;;;3.20;;
51907;SDS011;39320;53.214;6.556;2022-11-20T05:57:01;4.15;;;3.85;;
51907;SDS011;39320;53.214;6.556;2022-11-20T05:59:27;4.25;;;3.95;;
51907;SDS011;39320;53.214;6.556;2022-11-20T06:01:53;3.78;;;3.55;;
51907;SDS011;39320;53.214;6.556;2022-11-20T06:04:18;3.65;;;3.42;;
51907;SDS011;39320;53.214;6.556;2022-11-20T06:06:44;3.65;;;3.35;;
51907;SDS011;39320;53.214;6.556;2022-11-20T06:09:10;3.70;;;3.42;;
51907;SDS011;39320;53.214;6.556;2022-11-20T06:11:36;3.70;;;3.40;;
51907;SDS011;39320;53.214;6.556;2022-11-20T06:14:02;3.45;;;3.25;;
51907;SDS011;39320;53.214;6.556;2022-11-20T06:16:27;3.88;;;3.58;;
51907;SDS011;39320;53.214;6.556;2022-11-20T06:18:53;4.43;;;3.58;;
51907;SDS011;39320;53.214;6.556;2022-11-20T06:21:19;3.50;;;3.30;;
51907;SDS011;39320;53.214;6.556;2022-11-20T06:23:47;3.70;;;3.40;;
51907;SDS011;39320;53.214;6.556;2022-11-20T06:26:18;3.53;;;3.33;;
51907;SDS011;39320;53.214;6.556;2022-11-20T06:28:46;4.20;;;3.90;;
51907;SDS011;39320;53.214;6.556;2022-11-20T06:31:12;4.10;;;3.80;;
51907;SDS011;39320;53.214;6.556;2022-11-20T06:33:39;3.42;;;3.22;;
51907;SDS011;39320;53.214;6.556;2022-11-20T06:36:05;3.88;;;3.58;;
51907;SDS011;39320;53.214;6.556;2022-11-20T06:38:31;3.72;;;3.42;;
51907;SDS011;39320;53.214;6.556;2022-11-20T06:40:57;3.78;;;3.50;;
51907;SDS011;39320;53.214;6.556;2022-11-20T06:43:23;4.05;;;3.75;;
51907;SDS011;39320;53.214;6.556;2022-11-20T06:45:56;3.92;;;3.63;;
51907;SDS011;39320;53.214;6.556;2022-11-20T06:48:23;3.75;;;3.45;;
51907;SDS011;39320;53.214;6.556;2022-11-20T06:50:50;3.67;;;3.47;;
51907;SDS011;39320;53.214;6.556;2022-11-20T06:53:16;4.55;;;4.22;;
51907;SDS011;39320;53.214;6.556;2022-11-20T06:55:45;4.05;;;3.75;;
51907;SDS011;39320;53.214;6.556;2022-11-20T06:58:12;3.97;;;3.67;;
51907;SDS011;39320;53.214;6.556;2022-11-20T07:00:38;4.40;;;4.10;;
51907;SDS011;39320;53.214;6.556;2022-11-20T07:03:05;3.65;;;3.35;;
51907;SDS011;39320;53.214;6.556;2022-11-20T07:05:32;3.92;;;3.55;;
51907;SDS011;39320;53.214;6.556;2022-11-20T07:07:58;3.90;;;3.60;;
51907;SDS011;39320;53.214;6.556;2022-11-20T07:10:24;3.55;;;3.35;;
51907;SDS011;39320;53.214;6.556;2022-11-20T07:12:51;3.17;;;2.97;;
51907;SDS011;39320;53.214;6.556;2022-11-20T07:15:17;3.78;;;3.47;;
51907;SDS011;39320;53.214;6.556;2022-11-20T07:17:49;3.83;;;3.53;;
51907;SDS011;39320;53.214;6.556;2022-11-20T07:20:14;3.33;;;3.13;;
51907;SDS011;39320;53.214;6.556;2022-11-20T07:22:41;3.92;;;3.63;;
51907;SDS011;39320;53.214;6.556;2022-11-20T07:25:07;3.97;;;3.67;;
51907;SDS011;39320;53.214;6.556;2022-11-20T07:27:34;3.83;;;3.53;;
51907;SDS011;39320;53.214;6.556;2022-11-20T07:29:59;4.28;;;3.97;;
51907;SDS011;39320;53.214;6.556;2022-11-20T07:32:25;4.18;;;3.88;;
51907;SDS011;39320;53.214;6.556;2022-11-20T07:34:51;4.13;;;3.83;;
51907;SDS011;39320;53.214;6.556;2022-11-20T07:37:17;3.78;;;3.47;;
51907;SDS011;39320;53.214;6.556;2022-11-20T07:39:43;4.07;;;3.80;;
51907;SDS011;39320;53.214;6.556;2022-11-20T07:42:09;4.10;;;3.80;;
51907;SDS011;39320;53.214;6.556;2022-11-20T07:44:37;3.65;;;3.38;;
51907;SDS011;39320;53.214;6.556;2022-11-20T07:47:03;4.00;;;3.70;;
51907;SDS011;39320;53.214;6.556;2022-11-20T07:49:29;4.68;;;4.38;;
51907;SDS011;39320;53.214;6.556;2022-11-20T07:51:55;4.22;;;3.92;;
51907;SDS011;39320;53.214;6.556;2022-11-20T07:54:21;4.05;;;3.65;;
51907;SDS011;39320;53.214;6.556;2022-11-20T07:56:49;3.70;;;3.45;;
51907;SDS011;39320;53.214;6.556;2022-11-20T07:59:15;3.75;;;3.45;;
51907;SDS011;39320;53.214;6.556;2022-11-20T08:01:41;3.63;;;3.33;;
51907;SDS011;39320;53.214;6.556;2022-11-20T08:04:08;3.80;;;3.50;;
51907;SDS011;39320;53.214;6.556;2022-11-20T08:06:34;3.97;;;3.67;;
51907;SDS011;39320;53.214;6.556;2022-11-20T08:09:01;3.90;;;3.60;;
51907;SDS011;39320;53.214;6.556;2022-11-20T08:11:27;3.58;;;3.35;;
51907;SDS011;39320;53.214;6.556;2022-11-20T08:14:11;3.50;;;3.30;;
51907;SDS011;39320;53.214;6.556;2022-11-20T08:16:38;3.55;;;3.33;;
51907;SDS011;39320;53.214;6.556;2022-11-20T08:19:04;4.55;;;4.25;;
51907;SDS011;39320;53.214;6.556;2022-11-20T08:21:30;3.92;;;3.63;;
51907;SDS011;39320;53.214;6.556;2022-11-20T08:24:02;4.88;;;4.47;;
51907;SDS011;39320;53.214;6.556;2022-11-20T08:26:28;4.22;;;3.92;;
51907;SDS011;39320;53.214;6.556;2022-11-20T08:28:54;4.60;;;4.22;;
51907;SDS011;39320;53.214;6.556;2022-11-20T08:31:21;4.28;;;3.97;;
51907;SDS011;39320;53.214;6.556;2022-11-20T08:33:48;4.43;;;4.13;;
51907;SDS011;39320;53.214;6.556;2022-11-20T08:36:16;4.35;;;4.05;;
51907;SDS011;39320;53.214;6.556;2022-11-20T08:38:46;3.80;;;3.50;;
51907;SDS011;39320;53.214;6.556;2022-11-20T08:41:19;4.05;;;3.75;;
51907;SDS011;39320;53.214;6.556;2022-11-20T08:43:52;4.10;;;3.80;;
51907;SDS011;39320;53.214;6.556;2022-11-20T08:46:23;4.32;;;4.03;;
51907;SDS011;39320;53.214;6.556;2022-11-20T08:48:50;4.20;;;3.90;;
51907;SDS011;39320;53.214;6.556;2022-11-20T08:51:16;4.05;;;3.75;;
51907;SDS011;39320;53.214;6.556;2022-11-20T08:53:43;4.13;;;3.83;;
51907;SDS011;39320;53.214;6.556;2022-11-20T08:56:09;4.40;;;4.10;;
51907;SDS011;39320;53.214;6.556;2022-11-20T08:58:35;4.75;;;4.45;;
51907;SDS011;39320;53.214;6.556;2022-11-20T09:01:02;4.40;;;4.10;;
51907;SDS011;39320;53.214;6.556;2022-11-20T09:03:27;4.05;;;3.75;;
51907;SDS011;39320;53.214;6.556;2022-11-20T09:06:00;3.65;;;3.35;;
51907;SDS011;39320;53.214;6.556;2022-11-20T09:08:28;4.43;;;4.13;;
51907;SDS011;39320;53.214;6.556;2022-11-20T09:10:54;4.22;;;3.92;;
51907;SDS011;39320;53.214;6.556;2022-11-20T09:13:21;4.80;;;4.50;;
51907;SDS011;39320;53.214;6.556;2022-11-20T09:15:54;4.30;;;4.00;;
51907;SDS011;39320;53.214;6.556;2022-11-20T09:18:22;4.00;;;3.70;;
51907;SDS011;39320;53.214;6.556;2022-11-20T09:20:49;4.55;;;4.22;;
51907;SDS011;39320;53.214;6.556;2022-11-20T09:23:31;4.03;;;3.72;;
51907;SDS011;39320;53.214;6.556;2022-11-20T09:26:08;4.28;;;3.97;;
51907;SDS011;39320;53.214;6.556;2022-11-20T09:28:38;4.35;;;4.05;;
51907;SDS011;39320;53.214;6.556;2022-11-20T09:31:05;4.22;;;3.92;;
51907;SDS011;39320;53.214;6.556;2022-11-20T09:33:32;4.07;;;3.78;;
51907;SDS011;39320;53.214;6.556;2022-11-20T09:35:58;4.55;;;4.15;;
51907;SDS011;39320;53.214;6.556;2022-11-20T09:38:24;4.38;;;4.07;;
51907;SDS011;39320;53.214;6.556;2022-11-20T09:40:57;4.43;;;4.13;;
51907;SDS011;39320;53.214;6.556;2022-11-20T09:43:42;4.32;;;4.03;;
51907;SDS011;39320;53.214;6.556;2022-11-20T09:49:15;3.90;;;3.60;;
51907;SDS011;39320;53.214;6.556;2022-11-20T09:54:47;3.95;;;3.75;;
51907;SDS011;39320;53.214;6.556;2022-11-20T09:57:17;4.65;;;3.70;;
51907;SDS011;39320;53.214;6.556;2022-11-20T09:59:49;4.43;;;4.03;;
51907;SDS011;39320;53.214;6.556;2022-11-20T10:02:40;4.65;;;4.15;;
51907;SDS011;39320;53.214;6.556;2022-11-20T10:05:58;3.45;;;3.25;;
51907;SDS011;39320;53.214;6.556;2022-11-20T10:08:19;4.30;;;4.00;;
51907;SDS011;39320;53.214;6.556;2022-11-20T10:10:56;3.97;;;3.67;;
51907;SDS011;39320;53.214;6.556;2022-11-20T10:13:40;4.30;;;3.90;;
51907;SDS011;39320;53.214;6.556;2022-11-20T10:19:37;3.97;;;3.60;;
51907;SDS011;39320;53.214;6.556;2022-11-20T10:22:21;4.32;;;4.03;;
51907;SDS011;39320;53.214;6.556;2022-11-20T10:25:05;4.32;;;4.03;;
51907;SDS011;39320;53.214;6.556;2022-11-20T10:27:40;4.05;;;3.75;;
51907;SDS011;39320;53.214;6.556;2022-11-20T10:30:16;3.95;;;3.58;;
51907;SDS011;39320;53.214;6.556;2022-11-20T10:32:54;4.38;;;3.97;;
51907;SDS011;39320;53.214;6.556;2022-11-20T10:38:39;3.55;;;3.30;;
51907;SDS011;39320;53.214;6.556;2022-11-20T10:41:08;4.07;;;3.78;;
51907;SDS011;39320;53.214;6.556;2022-11-20T10:44:11;4.10;;;3.80;;
51907;SDS011;39320;53.214;6.556;2022-11-20T10:47:03;4.10;;;3.80;;
51907;SDS011;39320;53.214;6.556;2022-11-20T10:49:30;3.97;;;3.67;;
51907;SDS011;39320;53.214;6.556;2022-11-20T10:54:49;4.28;;;3.97;;
51907;SDS011;39320;53.214;6.556;2022-11-20T11:00:35;3.55;;;3.25;;
51907;SDS011;39320;53.214;6.556;2022-11-20T11:03:01;3.63;;;3.42;;
51907;SDS011;39320;53.214;6.556;2022-11-20T11:10:51;3.45;;;3.25;;
51907;SDS011;39320;53.214;6.556;2022-11-20T11:13:26;4.68;;;4.28;;
51907;SDS011;39320;53.214;6.556;2022-11-20T11:15:53;4.25;;;3.95;;
51907;SDS011;39320;53.214;6.556;2022-11-20T11:18:29;4.13;;;3.75;;
51907;SDS011;39320;53.214;6.556;2022-11-20T11:20:57;4.35;;;4.05;;
51907;SDS011;39320;53.214;6.556;2022-11-20T11:23:33;4.18;;;3.88;;
51907;SDS011;39320;53.214;6.556;2022-11-20T11:26:07;4.18;;;3.88;;
51907;SDS011;39320;53.214;6.556;2022-11-20T11:28:56;4.07;;;3.78;;
51907;SDS011;39320;53.214;6.556;2022-11-20T11:31:24;4.07;;;3.78;;
51907;SDS011;39320;53.214;6.556;2022-11-20T11:34:04;5.20;;;4.80;;
51907;SDS011;39320;53.214;6.556;2022-11-20T11:36:30;4.38;;;3.97;;
51907;SDS011;39320;53.214;6.556;2022-11-20T11:38:59;3.60;;;3.30;;
51907;SDS011;39320;53.214;6.556;2022-11-20T11:41:28;3.70;;;3.40;;
51907;SDS011;39320;53.214;6.556;2022-11-20T11:44:00;3.38;;;3.17;;
51907;SDS011;39320;53.214;6.556;2022-11-20T11:46:59;3.42;;;3.22;;
51907;SDS011;39320;53.214;6.556;2022-11-20T11:49:25;3.75;;;3.45;;
51907;SDS011;39320;53.214;6.556;2022-11-20T11:54:58;4.13;;;3.83;;
51907;SDS011;39320;53.214;6.556;2022-11-20T12:00:21;4.03;;;3.72;;
51907;SDS011;39320;53.214;6.556;2022-11-20T12:02:57;3.40;;;3.10;;
51907;SDS011;39320;53.214;6.556;2022-11-20T12:05:37;3.30;;;3.10;;
51907;SDS011;39320;53.214;6.556;2022-11-20T12:15:59;3.40;;;3.20;;
51907;SDS011;39320;53.214;6.556;2022-11-20T12:18:28;3.08;;;2.88;;
51907;SDS011;39320;53.214;6.556;2022-11-20T12:23:34;2.95;;;2.75;;
51907;SDS011;39320;53.214;6.556;2022-11-20T12:26:13;3.30;;;3.10;;
51907;SDS011;39320;53.214;6.556;2022-11-20T12:29:02;3.05;;;2.85;;
51907;SDS011;39320;53.214;6.556;2022-11-20T12:31:42;2.42;;;2.30;;
51907;SDS011;39320;53.214;6.556;2022-11-20T12:34:14;2.72;;;2.53;;
51907;SDS011;39320;53.214;6.556;2022-11-20T12:39:40;2.75;;;2.65;;
51907;SDS011;39320;53.214;6.556;2022-11-20T12:42:11;2.42;;;2.33;;
51907;SDS011;39320;53.214;6.556;2022-11-20T12:48:04;2.75;;;2.55;;
51907;SDS011;39320;53.214;6.556;2022-11-20T12:50:51;2.70;;;2.50;;
51907;SDS011;39320;53.214;6.556;2022-11-20T13:07:03;2.50;;;2.30;;
51907;SDS011;39320;53.214;6.556;2022-11-20T13:09:37;2.53;;;2.33;;
51907;SDS011;39320;53.214;6.556;2022-11-20T13:15:14;2.90;;;2.70;;
51907;SDS011;39320;53.214;6.556;2022-11-20T13:17:58;2.78;;;2.58;;
51907;SDS011;39320;53.214;6.556;2022-11-20T13:20:26;3.00;;;2.80;;
51907;SDS011;39320;53.214;6.556;2022-11-20T13:22:53;2.60;;;2.40;;
51907;SDS011;39320;53.214;6.556;2022-11-20T13:27:50;3.03;;;2.75;;
51907;SDS011;39320;53.214;6.556;2022-11-20T13:30:27;2.70;;;2.50;;
51907;SDS011;39320;53.214;6.556;2022-11-20T13:32:58;2.90;;;2.70;;
51907;SDS011;39320;53.214;6.556;2022-11-20T13:36:00;2.85;;;2.65;;
51907;SDS011;39320;53.214;6.556;2022-11-20T13:38:49;2.85;;;2.65;;
51907;SDS011;39320;53.214;6.556;2022-11-20T13:41:25;2.53;;;2.40;;
51907;SDS011;39320;53.214;6.556;2022-11-20T13:43:53;3.08;;;2.88;;
51907;SDS011;39320;53.214;6.556;2022-11-20T13:46:34;3.00;;;2.80;;
51907;SDS011;39320;53.214;6.556;2022-11-20T13:49:05;2.70;;;2.50;;
51907;SDS011;39320;53.214;6.556;2022-11-20T14:02:14;2.63;;;2.42;;
51907;SDS011;39320;53.214;6.556;2022-11-20T14:04:45;3.17;;;2.90;;
51907;SDS011;39320;53.214;6.556;2022-11-20T14:07:18;2.95;;;2.75;;
51907;SDS011;39320;53.214;6.556;2022-11-20T14:09:53;2.80;;;2.60;;
51907;SDS011;39320;53.214;6.556;2022-11-20T14:12:27;2.83;;;2.63;;
51907;SDS011;39320;53.214;6.556;2022-11-20T14:14:55;2.78;;;2.58;;
51907;SDS011;39320;53.214;6.556;2022-11-20T14:17:22;3.30;;;3.10;;
51907;SDS011;39320;53.214;6.556;2022-11-20T14:19:54;3.25;;;2.75;;
51907;SDS011;39320;53.214;6.556;2022-11-20T14:22:25;3.22;;;3.03;;
51907;SDS011;39320;53.214;6.556;2022-11-20T14:25:05;2.97;;;2.78;;
51907;SDS011;39320;53.214;6.556;2022-11-20T14:27:38;3.15;;;2.95;;
51907;SDS011;39320;53.214;6.556;2022-11-20T14:30:11;2.92;;;2.72;;
51907;SDS011;39320;53.214;6.556;2022-11-20T14:32:41;3.15;;;2.95;;
51907;SDS011;39320;53.214;6.556;2022-11-20T14:35:23;3.50;;;3.20;;
51907;SDS011;39320;53.214;6.556;2022-11-20T14:37:51;3.08;;;2.88;;
51907;SDS011;39320;53.214;6.556;2022-11-20T14:42:57;3.10;;;2.90;;
51907;SDS011;39320;53.214;6.556;2022-11-20T14:45:24;3.35;;;3.15;;
51907;SDS011;39320;53.214;6.556;2022-11-20T14:47:51;3.45;;;3.22;;
51907;SDS011;39320;53.214;6.556;2022-11-20T14:50:28;3.38;;;3.17;;
51907;SDS011;39320;53.214;6.556;2022-11-20T14:53:00;3.80;;;3.58;;
51907;SDS011;39320;53.214;6.556;2022-11-20T14:57:59;3.33;;;3.13;;
51907;SDS011;39320;53.214;6.556;2022-11-20T15:00:27;3.10;;;2.90;;
51907;SDS011;39320;53.214;6.556;2022-11-20T15:02:54;2.80;;;2.60;;
51907;SDS011;39320;53.214;6.556;2022-11-20T15:05:21;3.33;;;3.13;;
51907;SDS011;39320;53.214;6.556;2022-11-20T15:07:51;3.20;;;3.00;;
51907;SDS011;39320;53.214;6.556;2022-11-20T15:10:29;3.47;;;3.28;;
51907;SDS011;39320;53.214;6.556;2022-11-20T15:13:05;3.28;;;3.05;;
51907;SDS011;39320;53.214;6.556;2022-11-20T15:15:49;3.30;;;3.10;;
51907;SDS011;39320;53.214;6.556;2022-11-20T15:18:20;2.95;;;2.75;;
51907;SDS011;39320;53.214;6.556;2022-11-20T15:20:48;3.30;;;3.10;;
51907;SDS011;39320;53.214;6.556;2022-11-20T15:23:16;3.80;;;3.50;;
51907;SDS011;39320;53.214;6.556;2022-11-20T15:25:46;3.40;;;3.10;;
51907;SDS011;39320;53.214;6.556;2022-11-20T15:28:18;3.80;;;3.50;;
51907;SDS011;39320;53.214;6.556;2022-11-20T15:31:05;4.13;;;3.83;;
51907;SDS011;39320;53.214;6.556;2022-11-20T15:33:32;3.70;;;3.40;;
51907;SDS011;39320;53.214;6.556;2022-11-20T15:35:59;3.53;;;3.33;;
51907;SDS011;39320;53.214;6.556;2022-11-20T15:38:25;5.10;;;3.75;;
51907;SDS011;39320;53.214;6.556;2022-11-20T15:40:52;4.20;;;3.90;;
51907;SDS011;39320;53.214;6.556;2022-11-20T15:43:18;4.00;;;3.70;;
51907;SDS011;39320;53.214;6.556;2022-11-20T15:45:44;3.90;;;3.60;;
51907;SDS011;39320;53.214;6.556;2022-11-20T15:48:12;4.15;;;3.85;;
51907;SDS011;39320;53.214;6.556;2022-11-20T15:51:29;3.72;;;3.42;;
51907;SDS011;39320;53.214;6.556;2022-11-20T15:53:36;3.95;;;3.65;;
51907;SDS011;39320;53.214;6.556;2022-11-20T15:56:06;3.42;;;3.22;;
51907;SDS011;39320;53.214;6.556;2022-11-20T15:58:36;3.92;;;3.63;;
51907;SDS011;39320;53.214;6.556;2022-11-20T16:01:01;3.42;;;3.22;;
51907;SDS011;39320;53.214;6.556;2022-11-20T16:03:27;4.30;;;4.00;;
51907;SDS011;39320;53.214;6.556;2022-11-20T16:05:53;3.63;;;3.35;;
51907;SDS011;39320;53.214;6.556;2022-11-20T16:08:19;4.10;;;3.80;;
51907;SDS011;39320;53.214;6.556;2022-11-20T16:10:44;4.13;;;3.78;;
51907;SDS011;39320;53.214;6.556;2022-11-20T16:13:14;3.95;;;3.65;;
51907;SDS011;39320;53.214;6.556;2022-11-20T16:16:04;3.92;;;3.63;;
51907;SDS011;39320;53.214;6.556;2022-11-20T16:18:34;4.70;;;4.32;;
51907;SDS011;39320;53.214;6.556;2022-11-20T16:21:00;3.97;;;3.67;;
51907;SDS011;39320;53.214;6.556;2022-11-20T16:23:26;4.10;;;3.80;;
51907;SDS011;39320;53.214;6.556;2022-11-20T16:25:52;4.53;;;4.13;;
51907;SDS011;39320;53.214;6.556;2022-11-20T16:28:18;4.30;;;4.00;;
51907;SDS011;39320;53.214;6.556;2022-11-20T16:30:44;4.10;;;3.80;;